sensor_id;sensor_type;location;lat;lon;timestamp;pressure;altitude;pressure_sealevel;temperature;humidity
72921;BME280;61064;51.654;5.476;2023-05-07T00:01:49;101639.22;;;15.02;86.01
72921;BME280;61064;51.654;5.476;2023-05-07T00:04:15;101646.34;;;15.05;86.13
72921;BME280;61064;51.654;5.476;2023-05-07T00:06:40;101631.19;;;14.97;85.77
72921;BME280;61064;51.654;5.476;2023-05-07T00:09:06;101643.69;;;15.03;85.74
72921;BME280;61064;51.654;5.476;2023-05-07T00:11:31;101632.06;;;14.99;85.98
72921;BME280;61064;51.654;5.476;2023-05-07T00:13:57;101634.78;;;15.04;85.92
72921;BME280;61064;51.654;5.476;2023-05-07T00:16:22;101631.19;;;15.01;85.89
72921;BME280;61064;51.654;5.476;2023-05-07T00:18:48;101634.78;;;15.04;85.88
72921;BME280;61064;51.654;5.476;2023-05-07T00:21:13;101629.41;;;15.04;85.86
72921;BME280;61064;51.654;5.476;2023-05-07T00:23:38;101617.75;;;14.99;85.66
72921;BME280;61064;51.654;5.476;2023-05-07T00:26:04;101621.38;;;15.04;85.98
72921;BME280;61064;51.654;5.476;2023-05-07T00:28:29;101624.03;;;15.06;86.05
72921;BME280;61064;51.654;5.476;2023-05-07T00:30:58;101624.94;;;15.06;86.14
72921;BME280;61064;51.654;5.476;2023-05-07T00:33:24;101620.47;;;15.02;85.98
72921;BME280;61064;51.654;5.476;2023-05-07T00:35:51;101614.22;;;15.02;85.95
72921;BME280;61064;51.654;5.476;2023-05-07T00:38:17;101622.25;;;15.03;85.91
72921;BME280;61064;51.654;5.476;2023-05-07T00:40:42;101613.31;;;14.99;86.13
72921;BME280;61064;51.654;5.476;2023-05-07T00:43:07;101620.47;;;15.01;86.18
72921;BME280;61064;51.654;5.476;2023-05-07T00:45:34;101620.47;;;15.02;86.24
72921;BME280;61064;51.654;5.476;2023-05-07T00:48:00;101613.31;;;15.03;86.19
72921;BME280;61064;51.654;5.476;2023-05-07T00:50:28;101607.06;;;14.97;86.24
72921;BME280;61064;51.654;5.476;2023-05-07T00:52:54;101594.56;;;14.96;86.08
72921;BME280;61064;51.654;5.476;2023-05-07T00:55:20;101601.69;;;14.96;86.48
72921;BME280;61064;51.654;5.476;2023-05-07T00:57:45;101604.41;;;14.97;86.38
72921;BME280;61064;51.654;5.476;2023-05-07T01:00:11;101591.88;;;14.99;86.31
72921;BME280;61064;51.654;5.476;2023-05-07T01:02:41;101609.75;;;15.01;86.21
72921;BME280;61064;51.654;5.476;2023-05-07T01:05:09;101602.59;;;14.99;86.25
72921;BME280;61064;51.654;5.476;2023-05-07T01:07:37;101599.94;;;14.98;86.51
72921;BME280;61064;51.654;5.476;2023-05-07T01:10:04;101604.38;;;15.01;86.52
72921;BME280;61064;51.654;5.476;2023-05-07T01:12:30;101607.03;;;14.99;86.35
72921;BME280;61064;51.654;5.476;2023-05-07T01:14:56;101604.38;;;14.99;86.24
72921;BME280;61064;51.654;5.476;2023-05-07T01:17:22;101604.38;;;15.01;86.52
72921;BME280;61064;51.654;5.476;2023-05-07T01:19:47;101597.25;;;14.98;86.51
72921;BME280;61064;51.654;5.476;2023-05-07T01:22:14;101604.38;;;15.02;86.57
72921;BME280;61064;51.654;5.476;2023-05-07T01:24:41;101592.78;;;14.98;86.65
72921;BME280;61064;51.654;5.476;2023-05-07T01:27:06;101591.88;;;14.99;86.60
72921;BME280;61064;51.654;5.476;2023-05-07T01:29:32;101590.09;;;14.95;86.61
72921;BME280;61064;51.654;5.476;2023-05-07T01:31:59;101599.00;;;14.99;86.74
72921;BME280;61064;51.654;5.476;2023-05-07T01:34:27;101582.06;;;14.98;86.67
72921;BME280;61064;51.654;5.476;2023-05-07T01:36:54;101586.53;;;14.98;86.87
72921;BME280;61064;51.654;5.476;2023-05-07T01:39:22;101586.53;;;14.98;86.70
72921;BME280;61064;51.654;5.476;2023-05-07T01:41:49;101574.00;;;14.91;86.83
72921;BME280;61064;51.654;5.476;2023-05-07T01:44:15;101581.16;;;14.95;86.91
72921;BME280;61064;51.654;5.476;2023-05-07T01:46:41;101591.00;;;14.93;87.02
72921;BME280;61064;51.654;5.476;2023-05-07T01:49:07;101578.47;;;14.93;86.85
72921;BME280;61064;51.654;5.476;2023-05-07T01:51:33;101581.16;;;14.92;86.86
72921;BME280;61064;51.654;5.476;2023-05-07T01:53:59;101569.53;;;14.88;86.86
72921;BME280;61064;51.654;5.476;2023-05-07T01:56:25;101581.16;;;14.92;87.02
72921;BME280;61064;51.654;5.476;2023-05-07T01:58:51;101565.97;;;14.85;86.71
72921;BME280;61064;51.654;5.476;2023-05-07T02:01:16;101570.44;;;14.86;86.99
72921;BME280;61064;51.654;5.476;2023-05-07T02:03:42;101579.38;;;14.86;87.04
72921;BME280;61064;51.654;5.476;2023-05-07T02:06:07;101577.56;;;14.88;87.06
72921;BME280;61064;51.654;5.476;2023-05-07T02:08:32;101577.56;;;14.84;87.06
72921;BME280;61064;51.654;5.476;2023-05-07T02:10:58;101580.28;;;14.87;87.02
72921;BME280;61064;51.654;5.476;2023-05-07T02:13:23;101577.59;;;14.87;87.01
72921;BME280;61064;51.654;5.476;2023-05-07T02:15:52;101574.00;;;14.85;87.05
72921;BME280;61064;51.654;5.476;2023-05-07T02:18:18;101579.38;;;14.86;86.85
72921;BME280;61064;51.654;5.476;2023-05-07T02:20:44;101576.69;;;14.86;86.84
72921;BME280;61064;51.654;5.476;2023-05-07T02:23:09;101569.56;;;14.81;86.81
72921;BME280;61064;51.654;5.476;2023-05-07T02:25:34;101580.25;;;14.84;86.87
72921;BME280;61064;51.654;5.476;2023-05-07T02:28:00;101576.69;;;14.80;87.00
72921;BME280;61064;51.654;5.476;2023-05-07T02:30:25;101574.00;;;14.77;87.02
72921;BME280;61064;51.654;5.476;2023-05-07T02:32:53;101578.47;;;14.75;87.18
72921;BME280;61064;51.654;5.476;2023-05-07T02:35:19;101577.59;;;14.76;87.15
72921;BME280;61064;51.654;5.476;2023-05-07T02:37:44;101571.31;;;14.74;87.30
72921;BME280;61064;51.654;5.476;2023-05-07T02:40:10;101569.53;;;14.69;87.27
72921;BME280;61064;51.654;5.476;2023-05-07T02:42:36;101574.00;;;14.74;87.31
72921;BME280;61064;51.654;5.476;2023-05-07T02:45:01;101582.94;;;14.78;87.36
72921;BME280;61064;51.654;5.476;2023-05-07T02:47:26;101577.56;;;14.78;87.27
72921;BME280;61064;51.654;5.476;2023-05-07T02:49:53;101570.44;;;14.78;87.45
72921;BME280;61064;51.654;5.476;2023-05-07T02:52:19;101577.59;;;14.76;87.34
72921;BME280;61064;51.654;5.476;2023-05-07T02:54:44;101574.91;;;14.75;87.41
72921;BME280;61064;51.654;5.476;2023-05-07T02:57:10;101582.03;;;14.77;87.31
72921;BME280;61064;51.654;5.476;2023-05-07T02:59:35;101575.78;;;14.77;87.43
72921;BME280;61064;51.654;5.476;2023-05-07T03:02:00;101576.66;;;14.77;87.35
72921;BME280;61064;51.654;5.476;2023-05-07T03:04:26;101572.22;;;14.73;87.44
72921;BME280;61064;51.654;5.476;2023-05-07T03:06:51;101565.94;;;14.71;87.40
72921;BME280;61064;51.654;5.476;2023-05-07T03:09:16;101570.44;;;14.69;87.46
72921;BME280;61064;51.654;5.476;2023-05-07T03:11:42;101570.41;;;14.66;87.62
72921;BME280;61064;51.654;5.476;2023-05-07T03:14:07;101569.53;;;14.69;87.69
72921;BME280;61064;51.654;5.476;2023-05-07T03:16:33;101570.41;;;14.68;87.69
72921;BME280;61064;51.654;5.476;2023-05-07T03:18:58;101574.91;;;14.70;87.75
72921;BME280;61064;51.654;5.476;2023-05-07T03:21:23;101567.75;;;14.69;87.58
72921;BME280;61064;51.654;5.476;2023-05-07T03:23:49;101567.75;;;14.68;87.86
72921;BME280;61064;51.654;5.476;2023-05-07T03:26:14;101576.66;;;14.71;87.74
72921;BME280;61064;51.654;5.476;2023-05-07T03:28:40;101581.16;;;14.69;87.77
72921;BME280;61064;51.654;5.476;2023-05-07T03:31:05;101579.34;;;14.71;87.82
72921;BME280;61064;51.654;5.476;2023-05-07T03:33:33;101578.47;;;14.69;87.97
72921;BME280;61064;51.654;5.476;2023-05-07T03:35:58;101574.00;;;14.73;87.79
72921;BME280;61064;51.654;5.476;2023-05-07T03:38:24;101568.63;;;14.73;87.82
72921;BME280;61064;51.654;5.476;2023-05-07T03:40:49;101570.44;;;14.74;87.96
72921;BME280;61064;51.654;5.476;2023-05-07T03:43:15;101562.41;;;14.71;87.80
72921;BME280;61064;51.654;5.476;2023-05-07T03:45:40;101564.16;;;14.72;88.00
72921;BME280;61064;51.654;5.476;2023-05-07T03:48:05;101557.94;;;14.68;87.87
72921;BME280;61064;51.654;5.476;2023-05-07T03:50:31;101558.81;;;14.67;88.09
72921;BME280;61064;51.654;5.476;2023-05-07T03:52:56;101564.19;;;14.69;88.23
72921;BME280;61064;51.654;5.476;2023-05-07T03:55:21;101569.53;;;14.70;88.29
72921;BME280;61064;51.654;5.476;2023-05-07T03:57:46;101571.31;;;14.65;88.39
72921;BME280;61064;51.654;5.476;2023-05-07T04:00:12;101569.53;;;14.67;88.21
72921;BME280;61064;51.654;5.476;2023-05-07T04:02:38;101574.91;;;14.69;88.34
72921;BME280;61064;51.654;5.476;2023-05-07T04:05:03;101581.16;;;14.69;88.34
72921;BME280;61064;51.654;5.476;2023-05-07T04:07:29;101584.69;;;14.71;88.46
72921;BME280;61064;51.654;5.476;2023-05-07T04:09:54;101587.38;;;14.71;88.48
72921;BME280;61064;51.654;5.476;2023-05-07T04:12:20;101584.69;;;14.71;88.25
72921;BME280;61064;51.654;5.476;2023-05-07T04:14:45;101585.59;;;14.69;88.25
72921;BME280;61064;51.654;5.476;2023-05-07T04:17:10;101580.25;;;14.67;88.40
72921;BME280;61064;51.654;5.476;2023-05-07T04:19:36;101585.59;;;14.64;88.56
72921;BME280;61064;51.654;5.476;2023-05-07T04:22:01;101595.41;;;14.67;88.35
72921;BME280;61064;51.654;5.476;2023-05-07T04:24:26;101594.50;;;14.66;88.70
72921;BME280;61064;51.654;5.476;2023-05-07T04:26:52;101593.63;;;14.66;88.58
72921;BME280;61064;51.654;5.476;2023-05-07T04:29:17;101591.84;;;14.62;88.78
72921;BME280;61064;51.654;5.476;2023-05-07T04:31:43;101582.91;;;14.58;88.90
72921;BME280;61064;51.654;5.476;2023-05-07T04:34:10;101585.59;;;14.61;89.06
72921;BME280;61064;51.654;5.476;2023-05-07T04:36:37;101585.59;;;14.58;88.97
72921;BME280;61064;51.654;5.476;2023-05-07T04:39:02;101583.81;;;14.63;88.89
72921;BME280;61064;51.654;5.476;2023-05-07T04:41:28;101599.88;;;14.68;89.15
72921;BME280;61064;51.654;5.476;2023-05-07T04:43:53;101604.34;;;14.66;89.04
72921;BME280;61064;51.654;5.476;2023-05-07T04:46:18;101600.78;;;14.68;88.92
72921;BME280;61064;51.654;5.476;2023-05-07T04:48:44;101595.44;;;14.65;88.96
72921;BME280;61064;51.654;5.476;2023-05-07T04:51:09;101599.88;;;14.72;89.03
72921;BME280;61064;51.654;5.476;2023-05-07T04:53:34;101591.84;;;14.69;89.08
72921;BME280;61064;51.654;5.476;2023-05-07T04:56:00;101604.38;;;14.75;88.98
72921;BME280;61064;51.654;5.476;2023-05-07T04:58:25;101597.22;;;14.71;88.92
72921;BME280;61064;51.654;5.476;2023-05-07T05:00:50;101613.28;;;14.78;89.18
72921;BME280;61064;51.654;5.476;2023-05-07T05:03:16;101602.56;;;14.78;89.10
72921;BME280;61064;51.654;5.476;2023-05-07T05:05:42;101599.91;;;14.75;88.90
72921;BME280;61064;51.654;5.476;2023-05-07T05:08:07;101601.69;;;14.78;89.02
72921;BME280;61064;51.654;5.476;2023-05-07T05:10:32;101604.38;;;14.79;89.23
72921;BME280;61064;51.654;5.476;2023-05-07T05:12:58;101620.44;;;14.85;89.28
72921;BME280;61064;51.654;5.476;2023-05-07T05:15:23;101615.09;;;14.85;89.30
72921;BME280;61064;51.654;5.476;2023-05-07T05:17:48;101603.47;;;14.83;89.31
72921;BME280;61064;51.654;5.476;2023-05-07T05:20:14;101623.13;;;14.91;89.36
72921;BME280;61064;51.654;5.476;2023-05-07T05:22:40;101623.16;;;14.93;89.40
72921;BME280;61064;51.654;5.476;2023-05-07T05:25:06;101622.22;;;14.94;89.32
72921;BME280;61064;51.654;5.476;2023-05-07T05:27:32;101629.41;;;14.96;89.44
72921;BME280;61064;51.654;5.476;2023-05-07T05:29:57;101622.25;;;14.95;89.53
72921;BME280;61064;51.654;5.476;2023-05-07T05:32:22;101609.72;;;14.94;89.48
72921;BME280;61064;51.654;5.476;2023-05-07T05:34:47;101615.09;;;14.97;89.42
72921;BME280;61064;51.654;5.476;2023-05-07T05:37:13;101632.97;;;15.06;89.46
72921;BME280;61064;51.654;5.476;2023-05-07T05:39:38;101632.09;;;15.07;89.50
72921;BME280;61064;51.654;5.476;2023-05-07T05:42:04;101638.31;;;15.11;89.63
72921;BME280;61064;51.654;5.476;2023-05-07T05:44:29;101632.97;;;15.12;89.40
72921;BME280;61064;51.654;5.476;2023-05-07T05:46:55;101629.38;;;15.10;89.25
72921;BME280;61064;51.654;5.476;2023-05-07T05:49:22;101641.00;;;15.17;89.35
72921;BME280;61064;51.654;5.476;2023-05-07T05:51:48;101644.59;;;15.19;89.34
72921;BME280;61064;51.654;5.476;2023-05-07T05:54:16;101633.88;;;15.14;89.38
72921;BME280;61064;51.654;5.476;2023-05-07T05:56:41;101641.91;;;15.14;89.44
72921;BME280;61064;51.654;5.476;2023-05-07T05:59:07;101636.56;;;15.19;89.42
72921;BME280;61064;51.654;5.476;2023-05-07T06:01:32;101644.59;;;15.22;89.48
72921;BME280;61064;51.654;5.476;2023-05-07T06:03:58;101626.75;;;15.21;89.41
72921;BME280;61064;51.654;5.476;2023-05-07T06:06:23;101634.75;;;15.22;89.37
72921;BME280;61064;51.654;5.476;2023-05-07T06:08:49;101632.09;;;15.24;89.37
72921;BME280;61064;51.654;5.476;2023-05-07T06:11:14;101633.00;;;15.26;89.57
72921;BME280;61064;51.654;5.476;2023-05-07T06:13:40;101637.44;;;15.27;89.54
72921;BME280;61064;51.654;5.476;2023-05-07T06:16:06;101641.91;;;15.32;89.44
72921;BME280;61064;51.654;5.476;2023-05-07T06:18:31;101641.00;;;15.38;89.53
72921;BME280;61064;51.654;5.476;2023-05-07T06:20:56;101643.72;;;15.43;89.48
72921;BME280;61064;51.654;5.476;2023-05-07T06:23:22;101649.03;;;15.50;89.51
72921;BME280;61064;51.654;5.476;2023-05-07T06:25:51;101657.13;;;15.56;89.50
72921;BME280;61064;51.654;5.476;2023-05-07T06:28:16;101649.09;;;15.59;89.34
72921;BME280;61064;51.654;5.476;2023-05-07T06:30:42;101651.78;;;15.65;89.40
72921;BME280;61064;51.654;5.476;2023-05-07T06:33:07;101652.66;;;15.70;89.44
72921;BME280;61064;51.654;5.476;2023-05-07T06:35:33;101647.28;;;15.76;89.31
72921;BME280;61064;51.654;5.476;2023-05-07T06:37:58;101647.25;;;15.79;89.25
72921;BME280;61064;51.654;5.476;2023-05-07T06:40:23;101646.38;;;15.80;89.11
72921;BME280;61064;51.654;5.476;2023-05-07T06:42:48;101640.09;;;15.85;89.13
72921;BME280;61064;51.654;5.476;2023-05-07T06:45:14;101653.50;;;15.92;89.25
72921;BME280;61064;51.654;5.476;2023-05-07T06:47:39;101650.78;;;16.01;89.22
72921;BME280;61064;51.654;5.476;2023-05-07T06:50:05;101657.91;;;16.08;88.96
72921;BME280;61064;51.654;5.476;2023-05-07T06:52:31;101646.25;;;16.14;89.23
72921;BME280;61064;51.654;5.476;2023-05-07T06:54:56;101652.50;;;16.19;88.86
72921;BME280;61064;51.654;5.476;2023-05-07T06:57:22;101658.75;;;16.24;88.89
72921;BME280;61064;51.654;5.476;2023-05-07T06:59:47;101663.22;;;16.27;88.83
72921;BME280;61064;51.654;5.476;2023-05-07T07:02:12;101658.72;;;16.30;88.69
72921;BME280;61064;51.654;5.476;2023-05-07T07:04:38;101656.94;;;16.29;88.64
72921;BME280;61064;51.654;5.476;2023-05-07T07:07:03;101653.34;;;16.30;88.57
72921;BME280;61064;51.654;5.476;2023-05-07T07:09:28;101657.84;;;16.33;88.49
72921;BME280;61064;51.654;5.476;2023-05-07T07:11:54;101662.25;;;16.41;88.64
72921;BME280;61064;51.654;5.476;2023-05-07T07:14:19;101663.16;;;16.42;88.48
72921;BME280;61064;51.654;5.476;2023-05-07T07:16:45;101663.13;;;16.46;88.35
72921;BME280;61064;51.654;5.476;2023-05-07T07:19:11;101652.41;;;16.42;88.41
72921;BME280;61064;51.654;5.476;2023-05-07T07:21:37;101667.59;;;16.55;88.35
72921;BME280;61064;51.654;5.476;2023-05-07T07:24:02;101660.38;;;16.55;88.28
72921;BME280;61064;51.654;5.476;2023-05-07T07:26:28;101661.28;;;16.57;88.32
72921;BME280;61064;51.654;5.476;2023-05-07T07:28:53;101658.63;;;16.59;88.09
72921;BME280;61064;51.654;5.476;2023-05-07T07:31:18;101670.25;;;16.66;88.04
72921;BME280;61064;51.654;5.476;2023-05-07T07:33:44;101659.50;;;16.64;88.00
72921;BME280;61064;51.654;5.476;2023-05-07T07:36:09;101668.41;;;16.68;87.99
72921;BME280;61064;51.654;5.476;2023-05-07T07:38:35;101676.44;;;16.72;87.85
72921;BME280;61064;51.654;5.476;2023-05-07T07:41:01;101670.19;;;16.73;87.78
72921;BME280;61064;51.654;5.476;2023-05-07T07:43:26;101679.13;;;16.77;87.63
72921;BME280;61064;51.654;5.476;2023-05-07T07:45:52;101675.53;;;16.79;87.86
72921;BME280;61064;51.654;5.476;2023-05-07T07:48:18;101668.31;;;16.87;87.73
72921;BME280;61064;51.654;5.476;2023-05-07T07:50:43;101680.84;;;16.91;87.67
72921;BME280;61064;51.654;5.476;2023-05-07T07:53:08;101677.22;;;16.97;87.55
72921;BME280;61064;51.654;5.476;2023-05-07T07:55:38;101683.44;;;17.02;87.59
72921;BME280;61064;51.654;5.476;2023-05-07T07:58:04;101668.22;;;17.01;87.37
72921;BME280;61064;51.654;5.476;2023-05-07T08:00:30;101684.28;;;17.12;87.38
72921;BME280;61064;51.654;5.476;2023-05-07T08:02:55;101684.25;;;17.16;87.32
72921;BME280;61064;51.654;5.476;2023-05-07T08:05:21;101689.59;;;17.19;87.00
72921;BME280;61064;51.654;5.476;2023-05-07T08:07:47;101678.84;;;17.19;87.04
72921;BME280;61064;51.654;5.476;2023-05-07T08:10:17;101680.56;;;17.29;86.88
72921;BME280;61064;51.654;5.476;2023-05-07T08:12:47;101682.31;;;17.36;86.69
72921;BME280;61064;51.654;5.476;2023-05-07T08:15:12;101681.31;;;17.46;86.55
72921;BME280;61064;51.654;5.476;2023-05-07T08:17:38;101662.47;;;17.50;86.31
72921;BME280;61064;51.654;5.476;2023-05-07T08:20:03;101675.81;;;17.63;86.28
72921;BME280;61064;51.654;5.476;2023-05-07T08:22:29;101675.75;;;17.71;85.99
72921;BME280;61064;51.654;5.476;2023-05-07T08:24:54;101682.88;;;17.75;85.80
72921;BME280;61064;51.654;5.476;2023-05-07T08:27:19;101690.91;;;17.78;85.80
72921;BME280;61064;51.654;5.476;2023-05-07T08:29:45;101686.41;;;17.83;85.27
72921;BME280;61064;51.654;5.476;2023-05-07T08:32:12;101675.59;;;17.88;85.31
72921;BME280;61064;51.654;5.476;2023-05-07T08:34:37;101684.41;;;18.02;84.94
72921;BME280;61064;51.654;5.476;2023-05-07T08:37:03;101677.22;;;18.02;84.90
72921;BME280;61064;51.654;5.476;2023-05-07T08:39:29;101677.16;;;18.08;84.87
72921;BME280;61064;51.654;5.476;2023-05-07T08:41:55;101697.63;;;18.23;84.80
72921;BME280;61064;51.654;5.476;2023-05-07T08:44:26;101679.59;;;18.29;84.25
72921;BME280;61064;51.654;5.476;2023-05-07T08:46:54;101672.38;;;18.33;84.00
72921;BME280;61064;51.654;5.476;2023-05-07T08:49:21;101685.66;;;18.47;83.89
72921;BME280;61064;51.654;5.476;2023-05-07T08:51:47;101680.19;;;18.56;83.38
72921;BME280;61064;51.654;5.476;2023-05-07T08:54:15;101686.31;;;18.67;83.25
72921;BME280;61064;51.654;5.476;2023-05-07T08:56:41;101687.06;;;18.78;83.04
72921;BME280;61064;51.654;5.476;2023-05-07T08:59:06;101688.69;;;18.91;82.60
72921;BME280;61064;51.654;5.476;2023-05-07T09:01:32;101685.81;;;19.02;81.96
72921;BME280;61064;51.654;5.476;2023-05-07T09:03:57;101696.41;;;19.16;81.51
72921;BME280;61064;51.654;5.476;2023-05-07T09:06:23;101692.75;;;19.18;81.15
72921;BME280;61064;51.654;5.476;2023-05-07T09:08:53;101693.63;;;19.22;80.91
72921;BME280;61064;51.654;5.476;2023-05-07T09:11:22;101687.19;;;19.30;80.81
72921;BME280;61064;51.654;5.476;2023-05-07T09:13:49;101696.00;;;19.40;80.60
72921;BME280;61064;51.654;5.476;2023-05-07T09:16:15;101699.53;;;19.46;80.40
72921;BME280;61064;51.654;5.476;2023-05-07T09:18:43;101686.03;;;19.48;80.12
72921;BME280;61064;51.654;5.476;2023-05-07T09:21:11;101691.34;;;19.54;79.94
72921;BME280;61064;51.654;5.476;2023-05-07T09:23:37;101690.34;;;19.58;79.51
72921;BME280;61064;51.654;5.476;2023-05-07T09:26:03;101689.47;;;19.56;79.60
72921;BME280;61064;51.654;5.476;2023-05-07T09:28:29;101691.22;;;19.60;79.37
72921;BME280;61064;51.654;5.476;2023-05-07T09:30:55;101695.63;;;19.66;79.09
72921;BME280;61064;51.654;5.476;2023-05-07T09:33:20;101695.72;;;19.61;79.01
72921;BME280;61064;51.654;5.476;2023-05-07T09:35:46;101693.78;;;19.68;78.89
72921;BME280;61064;51.654;5.476;2023-05-07T09:38:12;101689.31;;;19.67;78.69
72921;BME280;61064;51.654;5.476;2023-05-07T09:40:37;101683.84;;;19.70;78.76
72921;BME280;61064;51.654;5.476;2023-05-07T09:43:13;101695.38;;;19.79;78.73
72921;BME280;61064;51.654;5.476;2023-05-07T09:45:39;101682.75;;;19.81;78.81
72921;BME280;61064;51.654;5.476;2023-05-07T09:48:05;101686.13;;;19.92;78.48
72921;BME280;61064;51.654;5.476;2023-05-07T09:50:48;101703.06;;;20.01;77.65
72921;BME280;61064;51.654;5.476;2023-05-07T09:53:14;101695.91;;;20.00;77.41
72921;BME280;61064;51.654;5.476;2023-05-07T09:55:40;101700.34;;;20.02;77.12
72921;BME280;61064;51.654;5.476;2023-05-07T09:58:06;101697.66;;;20.01;76.94
72921;BME280;61064;51.654;5.476;2023-05-07T10:00:32;101699.50;;;20.00;77.11
72921;BME280;61064;51.654;5.476;2023-05-07T10:02:58;101692.22;;;20.05;76.85
72921;BME280;61064;51.654;5.476;2023-05-07T10:05:24;101704.69;;;20.11;76.26
72921;BME280;61064;51.654;5.476;2023-05-07T10:07:50;101701.00;;;20.16;76.13
72921;BME280;61064;51.654;5.476;2023-05-07T10:10:17;101705.44;;;20.19;76.21
72921;BME280;61064;51.654;5.476;2023-05-07T10:12:43;101704.50;;;20.21;75.89
72921;BME280;61064;51.654;5.476;2023-05-07T10:15:10;101696.28;;;20.27;75.98
72921;BME280;61064;51.654;5.476;2023-05-07T10:17:40;101701.53;;;20.35;76.21
72921;BME280;61064;51.654;5.476;2023-05-07T10:20:07;101692.50;;;20.36;76.14
72921;BME280;61064;51.654;5.476;2023-05-07T10:22:52;101689.59;;;20.45;76.33
72921;BME280;61064;51.654;5.476;2023-05-07T10:25:23;101691.13;;;20.58;76.08
72921;BME280;61064;51.654;5.476;2023-05-07T10:27:51;101698.22;;;20.65;76.15
72921;BME280;61064;51.654;5.476;2023-05-07T10:33:10;101691.56;;;20.80;75.84
72921;BME280;61064;51.654;5.476;2023-05-07T10:35:41;101688.72;;;20.86;75.25
72921;BME280;61064;51.654;5.476;2023-05-07T10:38:08;101698.63;;;20.87;74.85
72921;BME280;61064;51.654;5.476;2023-05-07T10:40:34;101691.44;;;20.85;74.31
72921;BME280;61064;51.654;5.476;2023-05-07T10:43:02;101690.72;;;20.78;74.17
72921;BME280;61064;51.654;5.476;2023-05-07T10:45:29;101702.22;;;20.88;74.42
72921;BME280;61064;51.654;5.476;2023-05-07T10:48:08;101699.50;;;20.89;74.24
72921;BME280;61064;51.654;5.476;2023-05-07T10:50:34;101689.59;;;20.88;73.80
72921;BME280;61064;51.654;5.476;2023-05-07T10:55:53;101693.88;;;20.97;72.96
72921;BME280;61064;51.654;5.476;2023-05-07T10:58:40;101692.97;;;20.98;72.81
72921;BME280;61064;51.654;5.476;2023-05-07T11:01:06;101677.72;;;20.95;72.83
72921;BME280;61064;51.654;5.476;2023-05-07T11:03:31;101681.09;;;21.05;72.92
72921;BME280;61064;51.654;5.476;2023-05-07T11:06:14;101684.50;;;21.14;72.97
72921;BME280;61064;51.654;5.476;2023-05-07T11:08:59;101668.31;;;21.10;72.78
72921;BME280;61064;51.654;5.476;2023-05-07T11:11:49;101688.84;;;21.22;72.71
72921;BME280;61064;51.654;5.476;2023-05-07T11:17:08;101686.00;;;21.26;71.91
72921;BME280;61064;51.654;5.476;2023-05-07T11:19:54;101681.66;;;21.19;72.27
72921;BME280;61064;51.654;5.476;2023-05-07T11:22:47;101698.75;;;21.23;72.50
72921;BME280;61064;51.654;5.476;2023-05-07T11:25:19;101692.22;;;21.30;72.19
72921;BME280;61064;51.654;5.476;2023-05-07T11:27:47;101696.69;;;21.32;71.98
72921;BME280;61064;51.654;5.476;2023-05-07T11:30:21;101695.56;;;21.41;71.85
72921;BME280;61064;51.654;5.476;2023-05-07T11:32:48;101688.47;;;21.35;71.72
72921;BME280;61064;51.654;5.476;2023-05-07T11:35:15;101701.72;;;21.47;71.42
72921;BME280;61064;51.654;5.476;2023-05-07T11:37:41;101686.59;;;21.39;70.88
72921;BME280;61064;51.654;5.476;2023-05-07T11:40:08;101700.97;;;21.41;70.51
72921;BME280;61064;51.654;5.476;2023-05-07T11:42:39;101692.84;;;21.41;70.33
72921;BME280;61064;51.654;5.476;2023-05-07T11:45:07;101691.00;;;21.43;70.60
72921;BME280;61064;51.654;5.476;2023-05-07T11:47:38;101693.69;;;21.44;70.10
72921;BME280;61064;51.654;5.476;2023-05-07T11:50:11;101701.66;;;21.50;70.12
72921;BME280;61064;51.654;5.476;2023-05-07T11:52:37;101684.47;;;21.51;70.30
72921;BME280;61064;51.654;5.476;2023-05-07T11:55:11;101689.66;;;21.61;70.13
72921;BME280;61064;51.654;5.476;2023-05-07T11:57:37;101695.84;;;21.66;69.77
72921;BME280;61064;51.654;5.476;2023-05-07T12:00:09;101693.09;;;21.67;69.52
72921;BME280;61064;51.654;5.476;2023-05-07T12:02:35;101691.94;;;21.77;69.59
72921;BME280;61064;51.654;5.476;2023-05-07T12:05:01;101680.09;;;21.80;69.30
72921;BME280;61064;51.654;5.476;2023-05-07T12:07:27;101693.16;;;22.00;68.89
72921;BME280;61064;51.654;5.476;2023-05-07T12:09:53;101696.53;;;22.08;68.77
72921;BME280;61064;51.654;5.476;2023-05-07T12:12:19;101691.97;;;22.10;68.06
72921;BME280;61064;51.654;5.476;2023-05-07T12:14:45;101691.88;;;22.13;68.11
72921;BME280;61064;51.654;5.476;2023-05-07T12:17:13;101709.72;;;22.21;68.17
72921;BME280;61064;51.654;5.476;2023-05-07T12:19:40;101699.59;;;22.28;68.28
72921;BME280;61064;51.654;5.476;2023-05-07T12:22:11;101691.59;;;22.23;67.93
72921;BME280;61064;51.654;5.476;2023-05-07T12:24:57;101684.25;;;22.27;67.48
72921;BME280;61064;51.654;5.476;2023-05-07T12:27:22;101688.69;;;22.29;67.13
72921;BME280;61064;51.654;5.476;2023-05-07T12:29:50;101691.34;;;22.32;66.72
72921;BME280;61064;51.654;5.476;2023-05-07T12:32:17;101708.19;;;22.44;66.89
72921;BME280;61064;51.654;5.476;2023-05-07T12:34:45;101708.19;;;22.44;66.44
72921;BME280;61064;51.654;5.476;2023-05-07T12:37:12;101708.09;;;22.47;66.60
72921;BME280;61064;51.654;5.476;2023-05-07T12:40:03;101706.22;;;22.49;66.41
72921;BME280;61064;51.654;5.476;2023-05-07T12:42:38;101686.38;;;22.47;66.01
72921;BME280;61064;51.654;5.476;2023-05-07T12:45:15;101689.81;;;22.53;65.22
72921;BME280;61064;51.654;5.476;2023-05-07T12:47:45;101696.88;;;22.59;65.05
72921;BME280;61064;51.654;5.476;2023-05-07T12:50:11;101696.28;;;22.49;65.12
72921;BME280;61064;51.654;5.476;2023-05-07T12:52:41;101712.69;;;22.45;64.86
72921;BME280;61064;51.654;5.476;2023-05-07T12:55:09;101716.38;;;22.40;64.82
72921;BME280;61064;51.654;5.476;2023-05-07T12:57:39;101720.13;;;22.36;64.76